Time;durP1;ratioP1;P1;durP2;ratioP2;P2;SDS_P1;SDS_P2;PMS_P1;PMS_P2;Temp;Humidity;BMP_temperature;BMP_pressure;BME280_temperature;BME280_humidity;BME280_pressure;Samples;Min_cycle;Max_cycle;Signal;HPM_P1;HPM_P2
2023/05/23 00:12:03;;;;;;;31.30;17.83;;;;;;;13.96;100.00;101752.91;4970613;29;20061;-91
2023/05/23 00:14:53;;;;;;;27.73;16.77;;;;;;;13.99;100.00;101749.72;4979126;28;20394;-90
2023/05/23 00:17:59;;;;;;;32.60;18.80;;;;;;;13.97;100.00;101759.94;4993429;28;20119;-91
2023/05/23 00:23:00;;;;;;;31.65;18.30;;;;;;;14.00;100.00;101756.72;4944245;29;20047;-91
2023/05/23 00:25:32;;;;;;;31.73;18.83;;;;;;;13.95;100.00;101761.25;4938646;29;20042;-91
2023/05/23 00:27:58;;;;;;;28.58;17.63;;;;;;;13.91;100.00;101764.47;4939830;29;20028;-91
2023/05/23 00:30:23;;;;;;;28.70;16.42;;;;;;;13.89;100.00;101763.09;4937671;29;20051;-91
2023/05/23 00:32:48;;;;;;;26.63;16.67;;;;;;;13.86;100.00;101752.84;4937856;29;20036;-90
2023/05/23 00:35:14;;;;;;;26.00;16.93;;;;;;;13.91;100.00;101767.16;4935996;29;20460;-91
2023/05/23 00:37:39;;;;;;;28.80;17.13;;;;;;;13.88;100.00;101767.69;4935502;29;20165;-91
2023/05/23 00:40:47;;;;;;;24.83;16.33;;;;;;;13.92;100.00;101767.97;4966975;23;20494;-90
2023/05/23 00:43:41;;;;;;;25.30;15.82;;;;;;;13.87;100.00;101776.03;4960559;28;20446;-90
2023/05/23 00:46:15;;;;;;;23.88;15.60;;;;;;;13.66;100.00;101748.91;4953617;29;20560;-90
2023/05/23 00:48:44;;;;;;;21.38;14.90;;;;;;;13.83;100.00;101780.28;4937525;29;20114;-91
2023/05/23 00:51:09;;;;;;;23.30;14.98;;;;;;;13.83;100.00;101775.69;5027863;23;20049;-90
2023/05/23 00:53:35;;;;;;;21.40;14.87;;;;;;;13.80;100.00;101775.41;4975443;28;20022;-90
2023/05/23 00:56:01;;;;;;;21.98;14.80;;;;;;;13.80;100.00;101770.03;4973225;28;20036;-92
2023/05/23 00:58:27;;;;;;;23.95;14.77;;;;;;;13.84;100.00;101782.72;4973910;28;20050;-91
2023/05/23 01:00:53;;;;;;;23.13;13.43;;;;;;;13.81;100.00;101772.44;4973658;28;20043;-91
2023/05/23 01:03:20;;;;;;;19.95;13.98;;;;;;;13.81;100.00;101777.84;4974085;28;20027;-91
2023/05/23 01:05:46;;;;;;;26.58;14.32;;;;;;;13.77;100.00;101777.53;4978188;28;20026;-91
2023/05/23 01:08:14;;;;;;;19.73;13.30;;;;;;;13.78;100.00;101771.09;4976251;28;20054;-90
2023/05/23 01:14:36;;;;;;;24.95;13.15;;;;;;;13.88;100.00;101777.63;4975497;28;20069;-91
2023/05/23 01:21:28;;;;;;;20.77;12.82;;;;;;;13.77;100.00;101798.28;4978436;23;20049;-91
2023/05/23 01:24:15;;;;;;;21.83;12.70;;;;;;;13.75;100.00;101795.84;4960603;28;20083;-91
2023/05/23 01:27:25;;;;;;;21.58;13.27;;;;;;;13.53;100.00;101777.06;4968375;28;20114;-94
2023/05/23 01:30:37;;;;;;;23.48;12.85;;;;;;;13.66;100.00;101791.16;5012858;23;20070;-94
2023/05/23 01:33:21;;;;;;;27.92;13.18;;;;;;;13.53;100.00;101782.44;4987362;28;20158;-94
2023/05/23 01:35:49;;;;;;;26.23;13.57;;;;;;;13.41;100.00;101769.13;4977535;28;20094;-95
2023/05/23 01:38:18;;;;;;;22.80;13.27;;;;;;;13.53;100.00;101787.84;4977643;28;20037;-95
2023/05/23 01:40:43;;;;;;;30.53;13.57;;;;;;;13.48;100.00;101788.59;4963026;28;20299;-94
2023/05/23 01:43:41;;;;;;;23.13;12.98;;;;;;;13.40;100.00;101775.56;4954282;29;20449;-93
2023/05/23 01:52:28;;;;;;;22.50;12.30;;;;;;;13.38;100.00;101784.97;4951857;28;20039;-96
2023/05/23 01:55:33;;;;;;;;;;;;;;;;;;;;;
2023/05/23 01:58:05;;;;;;;24.67;11.98;;;;;;;13.37;100.00;101784.13;4954426;29;20031;-95
2023/05/23 02:00:42;;;;;;;26.38;13.70;;;;;;;13.39;100.00;101787.38;4954398;28;20051;-95
2023/05/23 02:03:58;;;;;;;27.92;12.70;;;;;;;13.33;100.00;101783.00;4957736;29;20023;-95
2023/05/23 02:06:36;;;;;;;24.60;12.77;;;;;;;13.32;100.00;101801.03;4881170;29;20059;-96
2023/05/23 02:10:03;;;;;;;;;;;;;;;;;;;;;
2023/05/23 02:13:09;;;;;;;27.63;13.63;;;;;;;13.36;100.00;101822.06;4890983;29;20036;-95
2023/05/23 02:15:48;;;;;;;32.03;13.70;;;;;;;13.20;100.00;101810.31;4888080;29;20050;-96
2023/05/23 02:18:38;;;;;;;28.73;13.97;;;;;;;13.35;100.00;101839.28;4867803;29;20396;-95
2023/05/23 02:27:04;;;;;;;26.50;12.32;;;;;;;13.09;100.00;101812.91;4994415;28;20058;-96
2023/05/23 02:29:30;;;;;;;33.70;14.10;;;;;;;13.21;100.00;101833.47;4995989;28;20038;-96
2023/05/23 02:31:55;;;;;;;26.20;13.60;;;;;;;13.17;100.00;101835.84;4974843;28;20043;-95
2023/05/23 02:38:20;;;;;;;27.10;12.73;;;;;;;13.13;100.00;101821.28;4874942;29;20489;-94
2023/05/23 02:47:50;;;;;;;20.30;10.55;;;;;;;13.26;100.00;101841.63;4977327;28;20121;-96
2023/05/23 02:51:04;;;;;;;21.52;10.30;;;;;;;13.21;100.00;101822.69;4975726;28;20035;-96
2023/05/23 02:53:45;;;;;;;19.00;10.20;;;;;;;13.08;100.00;101811.25;4940923;29;20035;-96
2023/05/23 02:56:12;;;;;;;21.30;10.80;;;;;;;13.09;100.00;101812.91;4938281;29;20087;-96
2023/05/23 02:59:18;;;;;;;22.23;10.60;;;;;;;13.26;100.00;101837.03;4906017;29;20047;-96
2023/05/23 03:01:52;;;;;;;15.57;8.85;;;;;;;13.11;100.00;101818.00;4928922;29;20055;-91
2023/05/23 03:04:23;;;;;;;17.00;8.48;;;;;;;13.05;100.00;101814.44;4929776;29;20039;-92
2023/05/23 03:07:10;;;;;;;17.40;8.27;;;;;;;13.10;100.00;101811.84;4930654;29;20031;-90
2023/05/23 03:09:48;;;;;;;14.67;8.40;;;;;;;13.13;100.00;101818.56;4924429;29;20307;-91
2023/05/23 03:12:14;;;;;;;14.75;8.68;;;;;;;13.25;100.00;101837.28;4930829;29;20031;-91
2023/05/23 03:14:48;;;;;;;17.00;8.53;;;;;;;13.10;100.00;101830.66;4930029;29;20227;-91
2023/05/23 03:17:14;;;;;;;15.07;7.43;;;;;;;13.08;100.00;101826.59;4932105;29;20759;-91
2023/05/23 03:19:39;;;;;;;11.77;7.07;;;;;;;13.12;100.00;101846.56;4921657;29;20036;-91
2023/05/23 03:22:04;;;;;;;12.70;6.10;;;;;;;13.07;100.00;101846.47;4968527;28;20051;-92
2023/05/23 03:24:30;;;;;;;10.73;5.93;;;;;;;13.05;100.00;101841.34;4975442;28;20101;-91
2023/05/23 03:26:56;;;;;;;10.02;5.82;;;;;;;13.07;100.00;101838.41;4985064;28;20061;-91
2023/05/23 03:29:21;;;;;;;7.60;5.60;;;;;;;13.06;100.00;101836.78;4993667;28;20026;-91
2023/05/23 03:31:46;;;;;;;8.93;5.40;;;;;;;13.07;100.00;101850.00;4994186;28;20695;-91
2023/05/23 03:34:12;;;;;;;10.93;5.60;;;;;;;13.09;100.00;101853.25;4995220;28;20482;-91
2023/05/23 03:36:38;;;;;;;9.43;5.43;;;;;;;13.06;100.00;101847.53;4992980;28;20872;-92
2023/05/23 03:41:32;;;;;;;10.33;5.40;;;;;;;13.09;100.00;101853.25;5003890;28;20100;-92
2023/05/23 03:43:59;;;;;;;9.02;5.28;;;;;;;13.06;100.00;101845.69;4994618;28;20536;-91
2023/05/23 03:46:25;;;;;;;8.70;5.23;;;;;;;13.07;100.00;101844.63;4993348;28;20221;-92
2023/05/23 03:53:50;;;;;;;7.20;5.22;;;;;;;12.90;100.00;101825.03;4989761;23;20129;-91
2023/05/23 03:57:08;;;;;;;10.70;5.70;;;;;;;12.97;100.00;101836.41;4994059;28;20022;-91
2023/05/23 03:59:51;;;;;;;10.18;5.72;;;;;;;13.11;100.00;101864.59;4994166;28;20040;-92
2023/05/23 04:02:30;;;;;;;8.18;5.40;;;;;;;12.97;100.00;101841.78;4987911;28;20030;-92
2023/05/23 04:05:23;;;;;;;7.60;5.28;;;;;;;13.14;100.00;101872.16;4974959;28;20497;-92
2023/05/23 04:10:28;;;;;;;12.03;5.63;;;;;;;13.05;100.00;101852.13;4956614;28;20055;-92
2023/05/23 04:13:09;;;;;;;9.97;6.20;;;;;;;13.07;100.00;101850.00;4955602;29;20275;-92
2023/05/23 04:16:00;;;;;;;12.40;6.65;;;;;;;13.18;100.00;101867.09;4964596;28;20031;-92
2023/05/23 04:18:38;;;;;;;14.27;5.95;;;;;;;13.09;100.00;101872.09;4966545;28;20037;-92
2023/05/23 04:21:04;;;;;;;13.90;7.15;;;;;;;13.13;100.00;101875.91;4974095;28;20359;-92
2023/05/23 04:23:29;;;;;;;13.80;6.68;;;;;;;12.95;100.00;101852.00;4956149;28;20497;-92
2023/05/23 04:26:21;;;;;;;13.70;6.47;;;;;;;13.13;100.00;101881.31;4974492;28;20031;-92
2023/05/23 04:28:53;;;;;;;12.23;6.25;;;;;;;13.05;100.00;101862.09;4973809;28;20038;-93
2023/05/23 04:36:37;;;;;;;13.03;6.87;;;;;;;13.13;100.00;101881.31;4998628;23;20317;-91
2023/05/23 04:39:15;;;;;;;14.63;6.20;;;;;;;13.01;100.00;101862.56;4977447;28;20489;-92
2023/05/23 04:41:47;;;;;;;16.13;6.32;;;;;;;13.12;100.00;101878.84;4983075;28;20395;-92
2023/05/23 04:44:13;;;;;;;17.52;6.25;;;;;;;13.13;100.00;101881.31;4955145;29;20019;-91
2023/05/23 04:46:44;;;;;;;14.75;6.80;;;;;;;13.17;100.00;101887.00;4969274;28;20114;-91
2023/05/23 04:49:37;;;;;;;12.85;7.25;;;;;;;13.35;100.00;101901.22;4970558;23;20062;-92
2023/05/23 04:52:08;;;;;;;15.73;7.65;;;;;;;13.25;100.00;101894.63;4989076;28;20466;-91
2023/05/23 04:54:39;;;;;;;12.90;7.38;;;;;;;13.19;100.00;101874.09;4993421;28;20464;-92
2023/05/23 04:57:05;;;;;;;17.23;7.90;;;;;;;13.25;100.00;101885.75;4976334;28;20097;-92
2023/05/23 05:03:08;;;;;;;17.10;8.45;;;;;;;13.17;100.00;101890.47;4934102;28;20057;-95
2023/05/23 05:06:05;;;;;;;17.27;8.60;;;;;;;13.40;100.00;101918.25;4968248;28;20057;-94
2023/05/23 05:08:42;;;;;;;22.40;8.90;;;;;;;13.15;100.00;101884.53;4990771;28;20037;-95
2023/05/23 05:11:08;;;;;;;25.98;10.20;;;;;;;13.26;100.00;101912.38;4985182;28;20379;-95
2023/05/23 05:13:54;;;;;;;25.10;10.27;;;;;;;13.35;100.00;101920.84;4995198;28;20496;-95
2023/05/23 05:16:20;;;;;;;27.00;9.65;;;;;;;13.26;100.00;101911.59;4988033;28;20422;-92
2023/05/23 05:18:45;;;;;;;32.60;10.83;;;;;;;13.26;100.00;101915.09;4963647;28;20041;-92
2023/05/23 05:21:12;;;;;;;34.37;10.40;;;;;;;13.28;100.00;101920.22;4975226;28;20085;-95
2023/05/23 05:23:37;;;;;;;30.23;9.57;;;;;;;13.31;100.00;101931.31;4976004;28;20397;-92
2023/05/23 05:26:04;;;;;;;34.83;10.90;;;;;;;13.24;100.00;101932.56;4974848;28;20189;-94
2023/05/23 05:28:29;;;;;;;29.00;9.77;;;;;;;13.17;100.00;101928.16;4977242;28;20034;-94
2023/05/23 05:30:55;;;;;;;37.97;11.27;;;;;;;13.15;100.00;101932.97;4991945;28;20286;-94
2023/05/23 05:33:24;;;;;;;38.40;11.18;;;;;;;13.15;100.00;101938.34;4975556;28;20110;-93
2023/05/23 05:35:53;;;;;;;30.97;10.23;;;;;;;13.12;100.00;101938.03;4981849;28;20027;-92
2023/05/23 05:38:18;;;;;;;31.13;10.60;;;;;;;13.06;100.00;101944.41;4980462;28;20385;-94
2023/05/23 05:40:44;;;;;;;30.50;10.63;;;;;;;13.01;100.00;101947.84;4973073;28;20166;-93
2023/05/23 05:43:09;;;;;;;28.70;10.77;;;;;;;12.96;100.00;101955.84;4989060;28;20108;-93
2023/05/23 05:45:35;;;;;;;36.85;10.63;;;;;;;12.93;100.00;101953.66;4981201;28;20027;-93
2023/05/23 05:48:00;;;;;;;28.87;10.67;;;;;;;12.95;100.00;101965.00;4990603;28;20498;-93
2023/05/23 05:50:26;;;;;;;36.75;9.73;;;;;;;12.96;100.00;101966.63;4985041;28;20030;-93
2023/05/23 05:52:51;;;;;;;28.00;10.00;;;;;;;12.95;100.00;101965.00;4994551;28;20003;-90
2023/05/23 05:55:16;;;;;;;26.63;9.37;;;;;;;12.98;100.00;101967.16;4991964;28;20027;-90
2023/05/23 05:57:42;;;;;;;28.33;9.10;;;;;;;12.85;100.00;101961.06;4992815;28;20011;-90
2023/05/23 06:00:17;;;;;;;22.50;8.73;;;;;;;12.84;100.00;101972.88;4993497;28;20023;-95
2023/05/23 06:02:46;;;;;;;24.80;8.52;;;;;;;12.81;100.00;101965.28;5003953;28;20067;-92
2023/05/23 06:05:12;;;;;;;29.48;8.80;;;;;;;12.80;100.00;101985.19;5002356;28;20019;-93
2023/05/23 06:07:38;;;;;;;24.40;8.48;;;;;;;12.73;100.00;101987.25;4974015;28;20075;-94
2023/05/23 06:10:04;;;;;;;18.13;6.60;;;;;;;12.66;100.00;101990.09;4975652;28;20427;-95
2023/05/23 06:12:29;;;;;;;16.17;6.43;;;;;;;12.61;100.00;101995.38;4956253;28;20528;-93
2023/05/23 06:14:55;;;;;;;19.73;7.17;;;;;;;12.59;100.00;101999.38;4976694;28;20117;-95
2023/05/23 06:17:20;;;;;;;21.60;7.30;;;;;;;12.59;100.00;102000.16;4982225;28;20061;-96
2023/05/23 06:19:47;;;;;;;20.63;6.63;;;;;;;12.58;100.00;101990.47;4989454;28;20035;-95
2023/05/23 06:22:12;;;;;;;17.30;6.10;;;;;;;12.50;100.00;101999.75;4974927;28;20649;-96
2023/05/23 06:24:38;;;;;;;15.10;5.85;;;;;;;12.49;100.00;102005.38;4972575;28;20105;-95
2023/05/23 06:27:03;;;;;;;20.70;6.67;;;;;;;12.52;100.00;102008.41;4979390;28;20032;-94
2023/05/23 06:29:30;;;;;;;15.77;5.80;;;;;;;12.56;100.00;102006.84;5001331;28;20417;-94
2023/05/23 06:31:55;;;;;;;15.30;4.90;;;;;;;12.56;100.00;102011.41;5003005;28;20018;-96
2023/05/23 06:34:20;;;;;;;15.52;6.40;;;;;;;12.55;100.00;102015.16;4982683;28;20101;-96
2023/05/23 06:36:47;;;;;;;17.40;5.73;;;;;;;12.56;100.00;102006.03;4987841;28;20023;-93
2023/05/23 06:39:12;;;;;;;23.90;4.97;;;;;;;12.61;100.00;102021.44;4988930;28;20098;-93
2023/05/23 06:41:38;;;;;;;14.80;5.40;;;;;;;12.61;100.00;102024.13;4979714;28;20389;-92
2023/05/23 06:44:04;;;;;;;16.65;5.38;;;;;;;12.51;100.00;102030.13;4983468;28;20026;-92
2023/05/23 06:46:30;;;;;;;20.30;5.80;;;;;;;12.42;100.00;102025.16;4991059;28;20026;-93
2023/05/23 06:48:55;;;;;;;15.23;5.07;;;;;;;12.38;100.00;102034.75;4980878;28;20030;-92
2023/05/23 06:51:20;;;;;;;17.10;5.60;;;;;;;12.29;100.00;102027.31;4990586;28;20462;-93
2023/05/23 06:53:46;;;;;;;11.83;5.13;;;;;;;12.29;100.00;102044.25;4990518;28;20034;-92
2023/05/23 06:56:12;;;;;;;13.47;4.97;;;;;;;12.25;100.00;102048.47;4989370;28;20613;-92
2023/05/23 06:58:38;;;;;;;16.25;4.97;;;;;;;12.22;100.00;102043.56;4978540;28;20057;-92
2023/05/23 07:01:03;;;;;;;20.47;5.37;;;;;;;12.25;100.00;102065.41;4972707;28;20478;-93
2023/05/23 07:03:29;;;;;;;16.20;4.47;;;;;;;12.28;100.00;102058.75;4976893;28;20289;-93
2023/05/23 07:05:54;;;;;;;19.10;5.43;;;;;;;12.19;100.00;102061.00;4972837;28;20038;-93
2023/05/23 07:08:20;;;;;;;13.53;4.50;;;;;;;12.14;100.00;102068.97;4976209;28;20026;-91
2023/05/23 07:10:45;;;;;;;13.48;4.47;;;;;;;12.17;100.00;102065.78;4971617;28;20023;-93
2023/05/23 07:13:10;;;;;;;15.17;4.77;;;;;;;12.21;100.00;102064.28;4971989;28;20038;-92
2023/05/23 07:15:36;;;;;;;12.00;4.43;;;;;;;12.34;100.00;102060.47;4977513;28;20042;-93
2023/05/23 07:18:01;;;;;;;14.73;5.43;;;;;;;12.48;100.00;102074.44;4989500;28;20030;-93
2023/05/23 07:20:26;;;;;;;13.02;4.55;;;;;;;12.58;100.00;102068.44;4982274;28;20030;-90
2023/05/23 07:22:52;;;;;;;19.20;4.87;;;;;;;12.81;100.00;102066.69;4982174;28;20022;-93
2023/05/23 07:25:17;;;;;;;13.50;4.30;;;;;;;13.00;100.00;102062.72;4954179;28;20062;-93
2023/05/23 07:27:43;;;;;;;20.70;4.87;;;;;;;13.16;100.00;102071.84;4972974;28;20482;-93
2023/05/23 07:30:08;;;;;;;16.23;4.25;;;;;;;13.44;97.73;102075.56;4973434;28;20023;-94
2023/05/23 07:32:35;;;;;;;14.57;4.53;;;;;;;13.77;94.37;102070.34;4971589;28;20031;-94
2023/05/23 07:35:00;;;;;;;13.35;3.65;;;;;;;14.08;91.22;102068.84;4963762;28;20035;-94
2023/05/23 07:37:26;;;;;;;15.63;4.73;;;;;;;14.30;90.73;102078.81;4975194;28;20580;-94
2023/05/23 07:39:52;;;;;;;14.30;4.30;;;;;;;14.37;88.23;102071.34;4983393;28;20130;-95
2023/05/23 07:42:17;;;;;;;15.57;4.18;;;;;;;14.45;87.09;102071.94;4972893;28;20054;-93
2023/05/23 07:44:43;;;;;;;12.97;4.97;;;;;;;14.48;84.55;102066.06;4983527;28;20109;-94
2023/05/23 07:47:08;;;;;;;18.43;4.63;;;;;;;14.45;82.82;102080.03;4991192;28;20030;-96
2023/05/23 07:49:34;;;;;;;17.15;5.15;;;;;;;14.36;82.41;102085.06;4991818;28;20057;-96
2023/05/23 07:52:00;;;;;;;10.53;4.27;;;;;;;14.25;83.57;102078.75;5002816;28;20038;-96
2023/05/23 07:54:25;;;;;;;13.55;4.60;;;;;;;14.31;83.24;102087.72;4991640;28;20065;-96
2023/05/23 07:56:53;;;;;;;14.30;4.33;;;;;;;14.45;83.12;102098.91;4982655;28;20058;-96
2023/05/23 07:59:19;;;;;;;12.30;4.43;;;;;;;14.58;81.86;102090.44;4985935;28;20042;-96
2023/05/23 08:01:44;;;;;;;11.33;4.23;;;;;;;14.94;80.82;102090.81;4992288;28;20027;-96
2023/05/23 08:04:17;;;;;;;12.05;4.90;;;;;;;15.04;79.01;102100.06;4973518;28;20034;-95
2023/05/23 08:06:46;;;;;;;11.50;4.60;;;;;;;15.10;79.18;102099.84;4994708;28;20114;-95
2023/05/23 08:09:12;;;;;;;13.38;4.63;;;;;;;14.96;78.94;102101.34;5000087;28;20026;-96
2023/05/23 08:11:37;;;;;;;13.07;4.55;;;;;;;14.89;80.41;102104.25;4981347;28;20042;-95
2023/05/23 08:14:02;;;;;;;13.20;4.20;;;;;;;14.97;81.98;102097.59;4986665;28;20027;-96
2023/05/23 08:16:27;;;;;;;10.68;3.78;;;;;;;15.17;80.33;102113.13;4996852;28;20086;-93
2023/05/23 08:18:53;;;;;;;19.27;4.67;;;;;;;15.08;79.53;102111.97;4997684;28;20029;-95
2023/05/23 08:21:18;;;;;;;9.47;3.83;;;;;;;14.66;80.23;102106.16;4984182;28;20113;-96
2023/05/23 08:23:43;;;;;;;11.23;4.03;;;;;;;14.47;81.89;102091.38;4999759;28;20017;-96
2023/05/23 08:28:45;;;;;;;15.38;4.60;;;;;;;14.59;83.08;102105.56;5547704;23;21361;-96
2023/05/23 08:31:11;;;;;;;16.65;4.80;;;;;;;14.62;83.72;102079.97;4991781;28;20504;-96
2023/05/23 08:33:36;;;;;;;12.23;3.63;;;;;;;14.82;81.64;102114.44;4996616;28;20057;-96
2023/05/23 08:36:02;;;;;;;13.20;4.43;;;;;;;14.42;82.74;102094.06;4987170;28;20037;-96
2023/05/23 08:38:29;;;;;;;11.33;4.07;;;;;;;14.23;83.71;102102.47;4994486;28;20101;-95
2023/05/23 08:40:58;;;;;;;16.13;4.45;;;;;;;14.13;85.14;102102.31;4979371;28;20030;-96
2023/05/23 08:43:23;;;;;;;11.77;3.63;;;;;;;14.20;86.36;102103.75;4985438;28;20031;-96
2023/05/23 08:45:50;;;;;;;8.98;4.00;;;;;;;14.03;85.50;102084.16;4992526;28;20026;-96
2023/05/23 08:48:18;;;;;;;13.13;3.57;;;;;;;13.95;87.01;102096.19;4974861;28;20066;-95
2023/05/23 08:50:46;;;;;;;12.00;3.63;;;;;;;14.26;86.79;102118.13;4974894;28;20417;-96
2023/05/23 08:53:19;;;;;;;10.25;4.00;;;;;;;14.36;86.28;102112.03;4969357;28;20646;-96
2023/05/23 08:55:45;;;;;;;12.52;4.20;;;;;;;14.51;85.26;102124.88;4971347;28;20038;-96
2023/05/23 08:58:12;;;;;;;12.82;3.65;;;;;;;14.46;86.32;102122.94;4969345;28;20484;-94
2023/05/23 09:00:37;;;;;;;11.68;3.75;;;;;;;14.38;86.52;102131.47;4964520;28;20391;-96
2023/05/23 09:03:03;;;;;;;10.27;3.90;;;;;;;14.42;87.12;102134.50;4966762;28;20038;-94
2023/05/23 09:05:29;;;;;;;11.98;3.70;;;;;;;14.61;87.98;102133.06;4971194;28;20089;-94
2023/05/23 09:07:55;;;;;;;8.87;3.13;;;;;;;15.09;84.64;102135.22;4972105;28;20031;-93
2023/05/23 09:10:21;;;;;;;9.38;3.88;;;;;;;15.37;82.84;102141.38;4976238;28;20022;-93
2023/05/23 09:12:47;;;;;;;7.77;3.20;;;;;;;15.68;80.68;102136.19;4968368;28;20077;-93
2023/05/23 09:15:13;;;;;;;12.20;3.10;;;;;;;15.77;80.00;102145.44;4976890;28;20042;-92
2023/05/23 09:17:39;;;;;;;12.93;3.08;;;;;;;15.83;76.82;102144.41;4982324;28;20029;-92
2023/05/23 09:20:22;;;;;;;10.48;2.90;;;;;;;15.99;79.49;102148.00;4980520;28;20031;-93
2023/05/23 09:22:47;;;;;;;13.37;3.13;;;;;;;15.90;78.25;102145.00;4978719;28;20031;-93
2023/05/23 09:25:13;;;;;;;8.93;3.08;;;;;;;15.51;80.90;102144.44;4971872;28;20042;-93
2023/05/23 09:27:39;;;;;;;10.50;2.73;;;;;;;15.39;82.34;102139.22;4973207;28;20026;-93
2023/05/23 09:30:06;;;;;;;13.93;2.60;;;;;;;15.31;79.71;102148.63;4973564;28;20278;-94
2023/05/23 09:32:31;;;;;;;9.75;2.47;;;;;;;15.20;79.22;102152.31;4991583;28;20023;-91
2023/05/23 09:35:03;;;;;;;13.33;3.27;;;;;;;15.24;78.47;102158.84;4969154;28;20035;-96
2023/05/23 09:37:42;;;;;;;12.68;2.67;;;;;;;15.48;79.66;102163.88;4964976;28;20581;-91
2023/05/23 09:40:09;;;;;;;9.60;2.37;;;;;;;15.72;75.02;102161.59;4968264;28;20557;-90
2023/05/23 09:42:35;;;;;;;12.57;2.93;;;;;;;15.62;74.49;102161.53;4955196;28;20317;-89
2023/05/23 09:45:01;;;;;;;9.45;2.40;;;;;;;15.53;73.51;102155.81;4972048;28;20027;-90
2023/05/23 09:47:27;;;;;;;11.90;2.63;;;;;;;15.33;74.09;102154.56;4955646;28;20030;-90
2023/05/23 09:49:53;;;;;;;14.30;2.60;;;;;;;15.34;75.24;102163.50;4973075;28;20475;-90
2023/05/23 09:52:21;;;;;;;12.40;2.83;;;;;;;15.45;75.86;102157.91;4972534;28;20030;-90
2023/05/23 09:54:47;;;;;;;14.77;2.75;;;;;;;15.63;74.09;102155.06;4970684;28;20057;-90
2023/05/23 09:57:15;;;;;;;17.27;2.80;;;;;;;15.87;73.37;102155.53;4971528;28;20030;-90
2023/05/23 09:59:44;;;;;;;12.00;2.70;;;;;;;16.01;73.03;102164.00;4972633;28;20025;-90
2023/05/23 10:02:11;;;;;;;14.57;2.57;;;;;;;15.55;71.36;102164.47;4972923;28;20452;-90
2023/05/23 10:04:39;;;;;;;14.53;2.77;;;;;;;15.74;70.72;102170.28;4972575;28;20334;-91
2023/05/23 10:07:18;;;;;;;11.48;2.63;;;;;;;16.15;69.21;102170.53;4973674;28;20057;-91
2023/05/23 10:09:53;;;;;;;13.30;2.80;;;;;;;16.45;67.14;102162.84;4970149;28;20019;-91
2023/05/23 10:12:31;;;;;;;16.38;2.17;;;;;;;16.57;65.48;102159.91;4954557;28;20035;-91
2023/05/23 10:15:00;;;;;;;9.43;2.72;;;;;;;16.42;61.24;102158.78;4971559;28;20097;-91
2023/05/23 10:17:36;;;;;;;12.98;2.83;;;;;;;16.30;63.40;102153.59;4972531;28;20065;-90
2023/05/23 10:20:07;;;;;;;13.20;2.40;;;;;;;16.85;62.68;102149.66;4955516;28;20029;-90
2023/05/23 10:22:35;;;;;;;12.82;2.47;;;;;;;17.19;61.36;102162.72;4972793;28;20031;-91
2023/05/23 10:25:04;;;;;;;14.40;2.33;;;;;;;17.05;59.47;102171.41;4972813;28;20019;-91
2023/05/23 10:27:30;;;;;;;11.83;2.73;;;;;;;16.90;58.63;102163.22;4952055;28;20034;-92
2023/05/23 10:29:57;;;;;;;8.40;2.60;;;;;;;16.92;57.70;102155.66;4985824;28;20294;-89
2023/05/23 10:32:25;;;;;;;13.98;2.53;;;;;;;16.88;57.80;102162.69;4990940;28;20114;-90
2023/05/23 10:35:19;;;;;;;14.88;2.78;;;;;;;16.92;59.06;102158.34;4984477;28;20023;-91
2023/05/23 10:38:12;;;;;;;11.38;2.90;;;;;;;17.15;58.85;102156.25;4988133;28;20546;-90
2023/05/23 10:41:05;;;;;;;12.45;2.90;;;;;;;17.31;55.16;102166.00;4988093;28;20050;-90
2023/05/23 10:43:43;;;;;;;13.43;2.70;;;;;;;17.23;55.94;102164.66;4972437;28;20490;-92
2023/05/23 10:46:08;;;;;;;13.30;2.65;;;;;;;17.36;55.45;102165.19;4965484;28;20057;-91
2023/05/23 10:48:39;;;;;;;10.40;2.73;;;;;;;17.36;54.30;102160.56;4971146;28;20086;-91
2023/05/23 10:51:05;;;;;;;12.63;2.67;;;;;;;17.08;53.02;102156.50;4970900;28;20126;-91
2023/05/23 10:53:35;;;;;;;9.57;2.97;;;;;;;17.01;55.71;102162.19;4970726;28;20058;-91
2023/05/23 10:56:00;;;;;;;11.68;2.58;;;;;;;16.99;55.84;102158.91;4970810;28;20031;-91
2023/05/23 10:58:29;;;;;;;14.93;2.90;;;;;;;17.18;56.50;102161.09;4971215;28;20027;-91
2023/05/23 11:00:58;;;;;;;8.50;2.70;;;;;;;17.10;53.89;102160.56;4969724;28;20031;-90
2023/05/23 11:03:45;;;;;;;14.20;2.60;;;;;;;17.40;56.65;102160.84;4970876;28;20039;-90
2023/05/23 11:06:47;;;;;;;10.10;2.63;;;;;;;17.58;54.84;102158.69;4970711;28;20077;-92
2023/05/23 11:09:12;;;;;;;13.43;2.75;;;;;;;17.96;55.52;102170.78;4970459;28;20027;-91
2023/05/23 11:11:52;;;;;;;12.47;2.87;;;;;;;18.25;54.13;102162.06;4970695;28;20367;-91
2023/05/23 11:14:36;;;;;;;13.38;2.58;;;;;;;18.37;53.16;102145.44;4971156;28;20027;-90
2023/05/23 11:17:10;;;;;;;14.07;2.97;;;;;;;18.06;52.35;102163.75;4968377;28;20031;-91
2023/05/23 11:19:36;;;;;;;19.70;3.55;;;;;;;17.71;51.86;102149.97;4970847;28;20478;-91
2023/05/23 11:22:02;;;;;;;13.40;2.90;;;;;;;17.79;52.75;102160.28;4987610;28;20015;-91
2023/05/23 11:24:46;;;;;;;11.00;2.90;;;;;;;17.88;52.48;102162.41;4970946;28;20042;-90
2023/05/23 11:27:11;;;;;;;12.40;3.40;;;;;;;17.89;52.47;102147.75;4970002;28;20082;-90
2023/05/23 11:29:37;;;;;;;11.87;3.07;;;;;;;18.10;50.76;102170.22;4933590;28;1044821;-90
2023/05/23 11:32:11;;;;;;;14.88;2.65;;;;;;;17.70;50.78;102161.91;4970088;28;20498;-90
2023/05/23 11:34:37;;;;;;;13.60;2.97;;;;;;;17.50;49.50;102163.53;4970091;28;20034;-91
2023/05/23 11:37:03;;;;;;;12.43;2.80;;;;;;;17.70;50.83;102167.31;4971014;28;20482;-91
2023/05/23 11:39:28;;;;;;;10.60;2.78;;;;;;;17.95;50.23;102150.19;4973121;28;20031;-90
2023/05/23 11:42:03;;;;;;;9.80;2.63;;;;;;;18.36;50.88;102164.72;4975958;28;20073;-90
2023/05/23 11:44:28;;;;;;;9.10;2.38;;;;;;;18.92;48.99;102148.09;4974854;28;20027;-91
2023/05/23 11:47:01;;;;;;;13.43;3.10;;;;;;;18.71;48.05;102169.16;4974414;28;20022;-91
2023/05/23 11:49:28;;;;;;;13.00;2.97;;;;;;;18.56;48.48;102158.38;4973138;28;20031;-91
2023/05/23 11:51:54;;;;;;;10.55;2.92;;;;;;;18.55;49.54;102171.13;4974663;28;20033;-90
2023/05/23 11:54:23;;;;;;;9.20;2.88;;;;;;;18.30;49.55;102182.94;4974926;28;20034;-91
2023/05/23 11:56:49;;;;;;;12.77;2.80;;;;;;;18.16;49.04;102174.56;4973488;28;20035;-91
2023/05/23 11:59:14;;;;;;;9.80;2.33;;;;;;;18.68;50.25;102168.88;4974869;28;20286;-90
2023/05/23 12:01:42;;;;;;;13.80;2.23;;;;;;;18.25;47.08;102178.34;4974556;28;20034;-90
2023/05/23 12:04:13;;;;;;;8.48;2.35;;;;;;;18.21;49.84;102173.72;4972354;28;20380;-90
2023/05/23 12:06:40;;;;;;;9.23;2.38;;;;;;;18.62;46.85;102178.97;4974170;28;20085;-90
2023/05/23 12:09:40;;;;;;;12.10;2.25;;;;;;;19.01;48.29;102177.41;4974737;28;20027;-90
2023/05/23 12:12:06;;;;;;;11.10;2.78;;;;;;;18.98;46.64;102175.28;4974707;28;20109;-90
2023/05/23 12:14:32;;;;;;;7.20;2.20;;;;;;;19.18;45.12;102169.66;4974394;28;20561;-90
2023/05/23 12:16:58;;;;;;;11.50;2.50;;;;;;;19.34;46.53;102181.22;4972967;28;20059;-91
2023/05/23 12:19:23;;;;;;;11.83;2.17;;;;;;;19.48;45.46;102172.41;4973971;28;20385;-91
2023/05/23 12:21:49;;;;;;;7.30;2.40;;;;;;;19.61;45.08;102179.09;4972804;28;20031;-90
2023/05/23 12:24:19;;;;;;;10.37;2.67;;;;;;;19.47;44.86;102177.06;4973884;28;20058;-89
2023/05/23 12:26:58;;;;;;;7.70;2.38;;;;;;;19.34;45.40;102181.22;4954423;29;20023;-90
2023/05/23 12:29:31;;;;;;;8.07;2.60;;;;;;;19.66;44.64;102184.50;4954564;29;20078;-90
2023/05/23 12:31:58;;;;;;;8.98;2.10;;;;;;;19.18;42.72;102172.38;4955926;28;20027;-90
2023/05/23 12:34:24;;;;;;;14.10;2.60;;;;;;;19.00;45.83;102182.03;4974235;28;20023;-90
2023/05/23 12:36:54;;;;;;;10.75;2.60;;;;;;;19.32;46.12;102175.25;4973420;28;20035;-90
2023/05/23 12:39:26;;;;;;;12.93;2.73;;;;;;;19.21;45.59;102193.56;4973154;28;20101;-91